Time;durP1;ratioP1;P1;durP2;ratioP2;P2;SDS_P1;SDS_P2;PMS_P1;PMS_P2;Temp;Humidity;BMP_temperature;BMP_pressure;BME280_temperature;BME280_humidity;BME280_pressure;Samples;Min_cycle;Max_cycle;Signal;HPM_P1;HPM_P2
2022/05/25 00:02:00;;;;;;;5.85;5.10;;;19.10;49.60;;;;;;6172430;23;20171;-87
2022/05/25 00:04:27;;;;;;;6.13;5.32;;;19.10;49.70;;;;;;6198061;23;20161;-87
2022/05/25 00:06:54;;;;;;;7.38;5.20;;;19.10;49.60;;;;;;6197556;23;20136;-87
2022/05/25 00:09:20;;;;;;;5.28;4.75;;;19.10;49.70;;;;;;6222585;23;20157;-87
2022/05/25 00:11:46;;;;;;;6.20;5.05;;;19.10;49.70;;;;;;6172031;23;20138;-87
2022/05/25 00:14:12;;;;;;;6.00;4.68;;;19.10;49.60;;;;;;6197416;23;20213;-87
2022/05/25 00:16:38;;;;;;;5.80;5.00;;;19.10;49.60;;;;;;6196860;23;20168;-86
2022/05/25 00:21:50;;;;;;;6.05;4.88;;;19.10;49.60;;;;;;6226917;23;20573;-86
2022/05/25 00:24:16;;;;;;;5.70;4.93;;;19.10;49.70;;;;;;6197132;23;20148;-86
2022/05/25 00:26:42;;;;;;;5.93;5.18;;;19.10;49.70;;;;;;6197435;23;20142;-88
2022/05/25 00:29:08;;;;;;;7.63;5.20;;;19.10;49.60;;;;;;6222637;23;20141;-87
2022/05/25 00:31:33;;;;;;;6.35;5.07;;;19.10;49.80;;;;;;6172211;23;20565;-87
2022/05/25 00:34:00;;;;;;;5.95;5.00;;;19.10;49.70;;;;;;6172302;23;20145;-87
2022/05/25 00:36:28;;;;;;;5.50;4.90;;;19.10;49.70;;;;;;6173234;23;20149;-87
2022/05/25 00:38:54;;;;;;;6.72;5.30;;;19.10;49.80;;;;;;6169286;23;20198;-87
2022/05/25 00:41:24;;;;;;;6.13;5.22;;;19.20;49.70;;;;;;6142816;23;20142;-86
2022/05/25 00:43:51;;;;;;;6.40;4.90;;;19.10;49.80;;;;;;6167627;23;20137;-88
2022/05/25 00:46:19;;;;;;;6.05;5.30;;;19.10;49.70;;;;;;6167130;23;20138;-87
2022/05/25 00:48:48;;;;;;;6.72;5.53;;;19.10;49.80;;;;;;6192290;23;20173;-86
2022/05/25 00:51:21;;;;;;;6.55;5.10;;;19.10;49.80;;;;;;6167620;23;20562;-87
2022/05/25 00:53:50;;;;;;;5.90;4.78;;;19.10;49.90;;;;;;6144679;23;20146;-86
2022/05/25 00:56:18;;;;;;;7.70;5.38;;;19.10;49.80;;;;;;6143124;23;20138;-87
2022/05/25 00:58:52;;;;;;;8.05;5.38;;;19.10;49.80;;;;;;6141728;23;20169;-87
2022/05/25 01:01:17;;;;;;;7.18;5.30;;;19.00;49.80;;;;;;6142798;23;20229;-87
2022/05/25 01:03:43;;;;;;;6.93;5.15;;;19.10;49.90;;;;;;6167162;23;20184;-87
2022/05/25 01:06:34;;;;;;;7.50;5.45;;;19.00;49.80;;;;;;6166851;23;20137;-87
2022/05/25 01:09:34;;;;;;;5.93;4.95;;;19.00;49.90;;;;;;6196008;23;20141;-87
2022/05/25 01:12:09;;;;;;;6.85;5.68;;;19.10;50.00;;;;;;6200015;23;20520;-87
2022/05/25 01:15:04;;;;;;;6.03;5.10;;;19.00;49.90;;;;;;6144530;23;20165;-87
2022/05/25 01:18:04;;;;;;;8.18;5.00;;;19.00;49.90;;;;;;6196563;23;20130;-88
2022/05/25 01:20:43;;;;;;;9.05;5.45;;;19.00;49.90;;;;;;6192235;23;20547;-86
2022/05/25 01:23:34;;;;;;;6.18;5.40;;;19.00;49.90;;;;;;6167370;23;20157;-88
2022/05/25 01:26:25;;;;;;;7.53;5.60;;;19.00;50.00;;;;;;6194463;23;20145;-87
2022/05/25 01:29:07;;;;;;;7.63;5.38;;;19.00;49.90;;;;;;6121190;23;20151;-87
2022/05/25 01:31:46;;;;;;;6.22;5.15;;;19.00;49.90;;;;;;6180139;23;20134;-87
2022/05/25 01:34:20;;;;;;;6.10;5.30;;;19.00;50.00;;;;;;6139302;23;20138;-88
2022/05/25 01:36:53;;;;;;;6.25;5.13;;;19.10;49.90;;;;;;6142450;23;20216;-87
2022/05/25 01:39:22;;;;;;;5.93;4.97;;;19.00;49.90;;;;;;6196420;23;20187;-87
2022/05/25 01:42:11;;;;;;;6.53;5.47;;;19.00;50.00;;;;;;6196608;23;20133;-86
2022/05/25 01:44:43;;;;;;;6.97;5.30;;;19.00;50.00;;;;;;6221872;23;20133;-87
2022/05/25 01:47:10;;;;;;;6.03;5.03;;;19.00;50.70;;;;;;6197379;23;20162;-87
2022/05/25 01:49:55;;;;;;;6.15;4.72;;;19.00;49.90;;;;;;6171763;23;20144;-87
2022/05/25 01:52:24;;;;;;;5.90;5.30;;;19.00;49.90;;;;;;6199666;23;20145;-87
2022/05/25 01:54:53;;;;;;;8.13;5.68;;;19.00;50.00;;;;;;6172113;23;20576;-87
2022/05/25 01:57:22;;;;;;;8.52;5.22;;;18.90;49.90;;;;;;6172695;23;20153;-87
2022/05/25 01:59:48;;;;;;;6.50;5.32;;;19.00;50.00;;;;;;6195822;23;20212;-87
2022/05/25 02:04:51;;;;;;;8.05;5.55;;;18.90;50.00;;;;;;6201570;23;20133;-87
2022/05/25 02:07:59;;;;;;;6.30;5.00;;;19.00;50.00;;;;;;6197271;23;20128;-87
2022/05/25 02:10:34;;;;;;;6.07;4.63;;;18.90;50.00;;;;;;6226068;23;20680;-86
2022/05/25 02:13:20;;;;;;;6.68;5.30;;;18.90;50.00;;;;;;6196304;23;20149;-87
2022/05/25 02:16:05;;;;;;;5.65;4.93;;;19.00;50.00;;;;;;6197024;23;20148;-87
2022/05/25 02:18:46;;;;;;;8.13;5.57;;;19.00;50.10;;;;;;6197434;23;20173;-87
2022/05/25 02:21:21;;;;;;;7.15;5.25;;;19.00;50.10;;;;;;6198903;23;20569;-87
2022/05/25 02:23:53;;;;;;;8.32;5.50;;;19.00;50.10;;;;;;6172551;23;20145;-87
2022/05/25 02:26:28;;;;;;;6.03;5.43;;;19.00;50.10;;;;;;6221919;23;20157;-87
2022/05/25 02:29:08;;;;;;;6.18;5.32;;;19.00;50.10;;;;;;6173220;23;20145;-87
2022/05/25 02:31:36;;;;;;;6.97;5.57;;;18.90;50.00;;;;;;6198918;23;20139;-88
2022/05/25 02:34:02;;;;;;;7.38;4.97;;;19.00;50.00;;;;;;6172339;23;20191;-87
2022/05/25 02:36:29;;;;;;;6.70;5.70;;;18.90;50.10;;;;;;6221453;23;20138;-87
2022/05/25 02:38:55;;;;;;;6.13;5.53;;;18.90;50.10;;;;;;6144083;23;20197;-87
2022/05/25 02:41:30;;;;;;;7.28;5.50;;;19.00;50.10;;;;;;6191070;23;20137;-87
2022/05/25 02:43:57;;;;;;;7.25;5.40;;;19.00;50.10;;;;;;6190744;23;20129;-87
2022/05/25 02:46:23;;;;;;;6.57;5.28;;;18.90;50.10;;;;;;6166932;23;20221;-87
2022/05/25 02:48:48;;;;;;;5.80;5.00;;;19.00;50.20;;;;;;6141723;23;20165;-87
2022/05/25 02:51:14;;;;;;;5.88;4.82;;;18.90;50.10;;;;;;6142391;23;20170;-87
2022/05/25 02:53:39;;;;;;;7.60;5.57;;;18.90;50.10;;;;;;6142539;23;20137;-87
2022/05/25 02:56:06;;;;;;;7.70;5.15;;;18.90;50.80;;;;;;6166734;23;20138;-87
2022/05/25 02:58:31;;;;;;;5.78;5.18;;;18.90;50.10;;;;;;6142633;23;20174;-86
2022/05/25 03:00:57;;;;;;;7.85;5.60;;;18.90;50.20;;;;;;6165889;23;20623;-86
2022/05/25 03:03:23;;;;;;;6.40;5.15;;;19.00;50.30;;;;;;6166718;23;20548;-87
2022/05/25 03:05:49;;;;;;;7.07;5.35;;;18.90;50.20;;;;;;6166164;23;20130;-87
2022/05/25 03:08:16;;;;;;;6.55;5.30;;;18.90;50.20;;;;;;6191595;23;20134;-87
2022/05/25 03:10:42;;;;;;;6.30;4.85;;;18.90;50.30;;;;;;6166279;23;20185;-87
2022/05/25 03:13:08;;;;;;;5.88;4.97;;;18.90;50.30;;;;;;6141153;23;20142;-86
2022/05/25 03:15:34;;;;;;;7.55;5.35;;;18.90;50.30;;;;;;6142340;23;20143;-87
2022/05/25 03:18:05;;;;;;;6.32;5.28;;;18.90;50.30;;;;;;6191295;23;20201;-88
2022/05/25 03:20:32;;;;;;;6.13;5.20;;;18.90;50.30;;;;;;6166972;23;20146;-87
2022/05/25 03:22:58;;;;;;;7.28;5.47;;;18.90;50.30;;;;;;6166990;23;20188;-86
2022/05/25 03:25:24;;;;;;;6.72;5.07;;;18.90;50.30;;;;;;6168111;23;20135;-87
2022/05/25 03:27:50;;;;;;;6.75;5.20;;;18.90;50.30;;;;;;6167972;23;20141;-87
2022/05/25 03:30:16;;;;;;;6.78;5.50;;;18.90;50.30;;;;;;6143617;23;20213;-87
2022/05/25 03:32:42;;;;;;;6.07;5.35;;;18.90;50.30;;;;;;6168827;23;20127;-86
2022/05/25 03:35:10;;;;;;;5.65;4.97;;;18.90;50.30;;;;;;6193029;23;20149;-86
2022/05/25 03:37:36;;;;;;;6.68;5.30;;;18.90;50.40;;;;;;6179321;23;20573;-87
2022/05/25 03:40:04;;;;;;;6.60;5.47;;;18.90;50.30;;;;;;6173456;23;20177;-87
2022/05/25 03:42:31;;;;;;;7.00;5.20;;;18.90;50.40;;;;;;6198376;23;20126;-87
2022/05/25 03:44:57;;;;;;;6.05;5.00;;;18.90;50.40;;;;;;6198700;23;20142;-86
2022/05/25 03:47:22;;;;;;;6.85;5.20;;;18.90;50.40;;;;;;6197965;23;20187;-87
2022/05/25 03:49:50;;;;;;;8.45;5.47;;;18.90;50.40;;;;;;6198042;23;20268;-87
2022/05/25 03:52:22;;;;;;;8.07;5.22;;;18.90;50.50;;;;;;6173082;23;20144;-87
2022/05/25 03:54:49;;;;;;;6.35;5.40;;;18.90;50.40;;;;;;6173258;23;20476;-87
2022/05/25 03:57:18;;;;;;;6.50;5.30;;;18.90;50.50;;;;;;6173477;23;20506;-87
2022/05/25 03:59:45;;;;;;;5.65;5.05;;;18.90;50.60;;;;;;6198547;23;20173;-88
2022/05/25 04:02:11;;;;;;;5.32;4.70;;;18.80;50.50;;;;;;6198540;23;20122;-86
2022/05/25 04:04:36;;;;;;;5.90;5.00;;;18.80;50.40;;;;;;6173098;23;20155;-87
2022/05/25 04:07:03;;;;;;;6.22;5.13;;;18.90;50.50;;;;;;6198277;23;20272;-87
2022/05/25 04:09:29;;;;;;;10.55;5.18;;;18.90;50.50;;;;;;6198269;23;20207;-86
2022/05/25 04:11:54;;;;;;;7.03;4.95;;;18.90;50.50;;;;;;6172591;23;20149;-87
2022/05/25 04:14:22;;;;;;;7.13;5.28;;;18.90;50.60;;;;;;6172871;23;20145;-87
2022/05/25 04:16:48;;;;;;;7.88;5.45;;;18.90;50.50;;;;;;6222689;23;20137;-87
2022/05/25 04:19:13;;;;;;;6.43;5.30;;;18.90;50.50;;;;;;6198107;23;20165;-87
2022/05/25 04:21:39;;;;;;;6.47;5.00;;;18.90;50.50;;;;;;6197779;23;20665;-86
2022/05/25 04:24:05;;;;;;;6.38;5.05;;;18.90;50.60;;;;;;6197423;23;20134;-87
2022/05/25 04:26:31;;;;;;;6.50;5.38;;;18.90;50.60;;;;;;6222881;23;20169;-87
2022/05/25 04:28:57;;;;;;;6.18;4.90;;;18.90;50.60;;;;;;6222444;23;20521;-87
2022/05/25 04:31:23;;;;;;;8.52;5.38;;;18.80;50.50;;;;;;6173333;23;20253;-88
2022/05/25 04:33:49;;;;;;;6.00;5.05;;;18.80;50.70;;;;;;6197142;23;20163;-87
2022/05/25 04:36:14;;;;;;;5.72;5.13;;;18.80;50.70;;;;;;6198127;23;20169;-87
2022/05/25 04:38:40;;;;;;;5.53;4.93;;;18.80;50.80;;;;;;6196572;23;20276;-87
2022/05/25 04:41:09;;;;;;;5.68;5.00;;;18.80;50.80;;;;;;6196694;23;20129;-87
2022/05/25 04:43:35;;;;;;;7.28;4.93;;;18.80;50.80;;;;;;6221732;23;20557;-87
2022/05/25 04:46:10;;;;;;;5.70;5.00;;;18.80;50.90;;;;;;6221813;23;20175;-87
2022/05/25 04:48:36;;;;;;;6.88;5.13;;;18.80;50.80;;;;;;6171893;23;20148;-87
2022/05/25 04:51:03;;;;;;;6.03;5.13;;;18.80;50.80;;;;;;6196274;23;20592;-87
2022/05/25 04:53:30;;;;;;;6.70;4.82;;;18.80;50.90;;;;;;6171964;23;20472;-87
2022/05/25 04:58:41;;;;;;;5.53;4.78;;;18.80;51.20;;;;;;6203432;23;20173;-87
2022/05/25 05:01:10;;;;;;;6.43;5.35;;;18.80;51.60;;;;;;6171819;23;20141;-88
2022/05/25 05:03:36;;;;;;;7.28;5.20;;;18.80;51.50;;;;;;6197717;23;20152;-87
2022/05/25 05:06:02;;;;;;;5.72;4.88;;;18.80;51.60;;;;;;6173008;23;20196;-87
2022/05/25 05:08:29;;;;;;;5.93;5.00;;;18.80;51.70;;;;;;6195304;23;20166;-87
2022/05/25 05:10:56;;;;;;;6.07;4.80;;;18.80;52.00;;;;;;6194742;23;20548;-87
2022/05/25 05:13:23;;;;;;;6.00;4.97;;;18.80;52.30;;;;;;6169893;23;20232;-87
2022/05/25 05:15:50;;;;;;;8.15;4.95;;;18.70;52.40;;;;;;6220659;23;20181;-87
2022/05/25 05:18:17;;;;;;;6.38;4.80;;;18.80;52.30;;;;;;6171833;23;20183;-88
2022/05/25 05:20:42;;;;;;;5.65;4.72;;;18.80;52.50;;;;;;6196614;23;20561;-86
2022/05/25 05:23:11;;;;;;;5.97;4.85;;;18.70;52.50;;;;;;6196439;23;20190;-87
2022/05/25 05:25:37;;;;;;;7.30;5.00;;;18.80;52.80;;;;;;6171407;23;20141;-88
2022/05/25 05:28:13;;;;;;;6.65;4.57;;;18.80;52.90;;;;;;6172034;23;20442;-87
2022/05/25 05:30:41;;;;;;;6.35;5.07;;;18.80;52.90;;;;;;6173722;23;20145;-87
2022/05/25 05:33:07;;;;;;;5.20;4.60;;;18.90;53.20;;;;;;6220760;23;20133;-87
2022/05/25 05:35:33;;;;;;;7.00;4.35;;;18.80;53.30;;;;;;6195358;23;20156;-87
2022/05/25 05:37:58;;;;;;;5.60;4.80;;;18.90;53.40;;;;;;6179568;23;20651;-87
2022/05/25 05:40:24;;;;;;;5.80;4.90;;;18.90;53.10;;;;;;6217396;23;20158;-87
2022/05/25 05:42:50;;;;;;;5.85;5.13;;;18.90;53.30;;;;;;6190127;23;20146;-86
2022/05/25 05:45:25;;;;;;;6.22;4.90;;;18.80;53.30;;;;;;6140483;23;20138;-87
2022/05/25 05:47:54;;;;;;;5.60;5.00;;;18.80;53.50;;;;;;6141064;23;20146;-86
2022/05/25 05:50:21;;;;;;;5.68;5.05;;;18.80;53.60;;;;;;6167243;23;20209;-86
2022/05/25 05:52:51;;;;;;;5.95;5.05;;;18.80;53.70;;;;;;6167629;23;20150;-86
2022/05/25 05:55:17;;;;;;;5.85;5.03;;;18.80;53.80;;;;;;6144960;23;20196;-88
2022/05/25 05:57:42;;;;;;;6.20;4.82;;;18.80;54.10;;;;;;6142118;23;20156;-86
2022/05/25 06:00:08;;;;;;;6.53;4.80;;;18.90;54.20;;;;;;6165907;23;20224;-86
2022/05/25 06:02:34;;;;;;;5.32;4.80;;;18.90;54.20;;;;;;6167447;23;20153;-87
2022/05/25 06:05:00;;;;;;;6.22;5.10;;;18.80;54.30;;;;;;6191503;23;20138;-87
2022/05/25 06:07:25;;;;;;;6.03;5.15;;;18.80;54.30;;;;;;6167058;23;20523;-87
2022/05/25 06:09:54;;;;;;;5.80;5.07;;;18.80;54.40;;;;;;6170212;23;20169;-87
2022/05/25 06:12:23;;;;;;;5.63;5.10;;;18.80;54.90;;;;;;6173041;23;20134;-86
2022/05/25 06:14:50;;;;;;;6.35;5.07;;;18.90;55.30;;;;;;6173212;23;20508;-88
2022/05/25 06:19:51;;;;;;;7.22;5.07;;;18.90;55.10;;;;;;6224412;23;20162;-86
2022/05/25 06:22:19;;;;;;;6.68;5.40;;;18.90;55.40;;;;;;6148740;23;20146;-89
2022/05/25 06:24:49;;;;;;;6.00;5.13;;;19.00;55.30;;;;;;6148016;23;20150;-87
2022/05/25 06:27:15;;;;;;;6.95;5.18;;;19.00;55.40;;;;;;6147293;23;20146;-86
2022/05/25 06:29:47;;;;;;;5.68;5.07;;;19.00;55.70;;;;;;6169139;23;20623;-87
2022/05/25 06:32:16;;;;;;;6.50;5.13;;;19.00;55.70;;;;;;6147162;23;20146;-87
2022/05/25 06:34:42;;;;;;;6.13;4.72;;;19.10;55.50;;;;;;6145785;23;20146;-86
2022/05/25 06:37:13;;;;;;;7.57;5.43;;;19.00;55.30;;;;;;6198407;23;20208;-88
2022/05/25 06:39:39;;;;;;;6.22;5.10;;;19.00;55.60;;;;;;6174175;23;20173;-87
2022/05/25 06:42:06;;;;;;;5.72;5.13;;;19.00;55.80;;;;;;6174944;23;20511;-89
2022/05/25 06:44:32;;;;;;;6.25;5.20;;;19.00;55.90;;;;;;6168550;23;20150;-87
2022/05/25 06:47:03;;;;;;;5.95;5.38;;;19.00;56.00;;;;;;6143267;23;20430;-87
2022/05/25 06:49:31;;;;;;;7.00;5.10;;;19.00;56.10;;;;;;6171184;23;20217;-88
2022/05/25 06:51:57;;;;;;;5.60;4.55;;;19.00;56.30;;;;;;6169290;23;20142;-86
2022/05/25 06:54:24;;;;;;;7.43;5.32;;;19.10;56.60;;;;;;6193733;23;20230;-87
2022/05/25 06:56:52;;;;;;;8.85;4.60;;;19.00;56.60;;;;;;6167470;23;20457;-85
2022/05/25 06:59:25;;;;;;;6.00;5.15;;;19.10;56.80;;;;;;6147284;23;20173;-86
2022/05/25 07:02:36;;;;;;;8.23;5.72;;;19.00;56.70;;;;;;6173936;23;20150;-85
2022/05/25 07:04:45;;;;;;;5.72;5.20;;;19.10;56.80;;;;;;6163063;23;20252;-87
2022/05/25 07:07:24;;;;;;;5.70;5.10;;;19.10;56.80;;;;;;6120181;23;20154;-86
2022/05/25 07:09:51;;;;;;;6.82;5.80;;;19.20;57.10;;;;;;6118016;23;20238;-86
2022/05/25 07:12:17;;;;;;;6.13;5.55;;;19.20;57.20;;;;;;6139550;23;20287;-85
2022/05/25 07:14:43;;;;;;;6.82;5.38;;;19.30;57.50;;;;;;6143317;23;20474;-85
2022/05/25 07:17:13;;;;;;;9.15;5.28;;;19.20;57.60;;;;;;6138370;23;20212;-86
2022/05/25 07:19:40;;;;;;;8.50;4.80;;;19.20;57.60;;;;;;6089275;23;20683;-86
2022/05/25 07:22:09;;;;;;;9.35;5.57;;;19.30;57.70;;;;;;6091157;23;20148;-87
2022/05/25 07:24:35;;;;;;;9.13;5.90;;;19.30;57.50;;;;;;6083211;23;20204;-86
2022/05/25 07:27:01;;;;;;;13.98;5.78;;;19.30;57.50;;;;;;6084079;23;20152;-86
2022/05/25 07:29:27;;;;;;;6.63;5.30;;;19.20;57.60;;;;;;6106024;23;20156;-86
2022/05/25 07:32:04;;;;;;;8.25;5.15;;;19.30;57.90;;;;;;6110660;23;20230;-87
2022/05/25 07:34:32;;;;;;;8.63;5.65;;;19.20;58.10;;;;;;6118215;23;20153;-86
2022/05/25 07:37:02;;;;;;;8.07;5.80;;;19.20;58.00;;;;;;6142906;23;20200;-87
2022/05/25 07:39:32;;;;;;;9.07;5.70;;;19.20;58.10;;;;;;6118400;23;20230;-87
2022/05/25 07:41:59;;;;;;;7.63;5.05;;;19.20;58.10;;;;;;6141780;23;20242;-86
2022/05/25 07:44:34;;;;;;;7.63;5.07;;;19.20;58.10;;;;;;6143109;23;20140;-86
2022/05/25 07:47:00;;;;;;;8.48;5.32;;;19.20;57.90;;;;;;6147410;23;20131;-87
2022/05/25 07:49:30;;;;;;;8.25;6.13;;;19.30;58.00;;;;;;6208248;23;20129;-87
2022/05/25 07:51:57;;;;;;;9.27;5.45;;;19.30;58.10;;;;;;6181709;23;20148;-87
2022/05/25 07:54:23;;;;;;;7.15;5.60;;;19.30;58.90;;;;;;6185704;23;20145;-87
2022/05/25 07:56:49;;;;;;;8.38;5.95;;;19.30;58.30;;;;;;6206460;23;20134;-87
2022/05/25 07:59:17;;;;;;;6.05;5.40;;;19.30;58.30;;;;;;6181746;23;20181;-87
2022/05/25 08:07:14;;;;;;;12.65;5.80;;;19.40;58.90;;;;;;6196158;23;20197;-87
2022/05/25 08:09:42;;;;;;;6.97;5.95;;;19.40;58.80;;;;;;6147659;23;20143;-87
2022/05/25 08:12:08;;;;;;;8.90;5.80;;;19.30;58.60;;;;;;6122323;23;20238;-87
2022/05/25 08:14:34;;;;;;;13.20;5.93;;;19.20;58.60;;;;;;6145752;23;20154;-87
2022/05/25 08:16:59;;;;;;;19.92;6.55;;;19.30;58.90;;;;;;6145956;23;20151;-86
2022/05/25 08:19:26;;;;;;;12.38;6.35;;;19.20;59.00;;;;;;6109949;23;20203;-86
2022/05/25 08:21:52;;;;;;;17.05;6.97;;;19.30;59.10;;;;;;6109423;23;20158;-86
2022/05/25 08:24:20;;;;;;;12.57;6.28;;;19.30;58.90;;;;;;6117502;23;20155;-86
2022/05/25 08:26:49;;;;;;;18.55;6.75;;;19.30;58.90;;;;;;6142620;23;20155;-86
2022/05/25 08:29:24;;;;;;;;;;;;;;;;;;;;;
2022/05/25 08:31:57;;;;;;;19.80;6.85;;;19.30;59.20;;;;;;6113534;23;20194;-87
2022/05/25 08:34:26;;;;;;;17.77;6.47;;;19.30;59.50;;;;;;6117753;23;20558;-86
2022/05/25 08:36:52;;;;;;;16.98;6.05;;;19.30;59.40;;;;;;6138334;23;20181;-87
2022/05/25 08:39:18;;;;;;;10.48;5.85;;;19.30;59.40;;;;;;6139236;23;20252;-86
2022/05/25 08:41:48;;;;;;;10.40;6.13;;;19.40;59.40;;;;;;6139229;23;20650;-88
2022/05/25 08:44:20;;;;;;;13.00;6.45;;;19.50;59.20;;;;;;6140293;23;20228;-86
2022/05/25 08:47:34;;;;;;;13.88;6.40;;;19.50;59.30;;;;;;6138014;23;20521;-89
2022/05/25 08:49:45;;;;;;;14.93;5.82;;;19.50;59.10;;;;;;6145112;23;20157;-88
2022/05/25 08:52:34;;;;;;;9.15;6.55;;;19.50;59.00;;;;;;6209135;23;20141;-87
2022/05/25 08:55:13;;;;;;;15.88;6.55;;;19.50;59.00;;;;;;6204228;23;20149;-88
2022/05/25 08:57:45;;;;;;;8.65;6.20;;;19.50;59.00;;;;;;6182301;23;20149;-86
2022/05/25 09:00:24;;;;;;;12.68;6.43;;;19.50;59.00;;;;;;6181265;23;20518;-86
2022/05/25 09:03:18;;;;;;;9.27;5.95;;;19.40;59.00;;;;;;6113195;23;20159;-85
2022/05/25 09:06:16;;;;;;;13.48;5.57;;;19.50;59.00;;;;;;6110204;23;20148;-85
2022/05/25 09:09:04;;;;;;;11.00;5.95;;;19.50;59.00;;;;;;6134457;23;20190;-86
2022/05/25 09:11:38;;;;;;;10.15;5.80;;;19.60;59.10;;;;;;6109229;23;20227;-85
2022/05/25 09:14:11;;;;;;;12.27;6.70;;;19.50;58.90;;;;;;6070151;23;20149;-85
2022/05/25 09:16:37;;;;;;;10.40;6.18;;;19.50;59.10;;;;;;6022608;23;20150;-86
2022/05/25 09:19:17;;;;;;;12.48;6.60;;;19.50;59.20;;;;;;6044798;23;20313;-86
2022/05/25 09:21:58;;;;;;;13.25;5.93;;;19.50;59.20;;;;;;6041766;23;20230;-85
2022/05/25 09:24:25;;;;;;;16.63;6.75;;;19.60;59.20;;;;;;6041953;23;20188;-85
2022/05/25 09:26:51;;;;;;;12.95;6.65;;;19.50;59.40;;;;;;6041645;23;20150;-85
2022/05/25 09:29:16;;;;;;;10.52;6.22;;;19.50;59.40;;;;;;6042618;23;20228;-85
2022/05/25 09:31:46;;;;;;;13.27;6.68;;;19.60;59.40;;;;;;6018652;23;20153;-86
2022/05/25 09:34:33;;;;;;;8.70;6.20;;;19.60;59.40;;;;;;6078544;23;20155;-85
2022/05/25 09:37:09;;;;;;;12.23;6.50;;;19.50;59.30;;;;;;6107296;23;20199;-85
2022/05/25 09:39:38;;;;;;;8.15;5.93;;;19.60;59.30;;;;;;6106857;23;20483;-85
2022/05/25 09:42:06;;;;;;;9.63;5.97;;;19.60;59.10;;;;;;6129972;23;20132;-85
2022/05/25 09:44:33;;;;;;;13.32;6.20;;;19.60;59.00;;;;;;6131624;23;20535;-85
2022/05/25 09:47:00;;;;;;;8.52;6.28;;;19.60;59.00;;;;;;6198476;23;20146;-87
2022/05/25 09:49:30;;;;;;;8.48;6.18;;;19.60;59.00;;;;;;6173967;23;20148;-86
2022/05/25 09:51:58;;;;;;;10.77;6.57;;;19.60;59.00;;;;;;6201600;23;20134;-86
2022/05/25 09:54:39;;;;;;;14.23;6.15;;;19.60;59.00;;;;;;6225741;23;20133;-86
2022/05/25 09:57:07;;;;;;;10.25;6.32;;;19.60;59.00;;;;;;6207045;23;20131;-86
2022/05/25 09:59:42;;;;;;;9.10;6.10;;;19.60;59.10;;;;;;6192351;23;20217;-86
2022/05/25 10:02:21;;;;;;;11.15;5.90;;;19.60;59.10;;;;;;6196415;23;20156;-86
2022/05/25 10:04:52;;;;;;;10.50;6.05;;;19.70;58.90;;;;;;6194701;23;20152;-87
2022/05/25 10:07:23;;;;;;;11.43;6.05;;;19.60;58.80;;;;;;6194821;23;20142;-86
2022/05/25 10:09:51;;;;;;;11.55;6.57;;;19.60;58.60;;;;;;6192493;23;20177;-86
2022/05/25 10:12:24;;;;;;;12.88;6.57;;;19.70;58.40;;;;;;6190684;23;20542;-86
2022/05/25 10:15:07;;;;;;;10.32;5.72;;;19.70;57.70;;;;;;6191083;23;20154;-86
2022/05/25 10:17:42;;;;;;;14.52;6.70;;;19.80;57.90;;;;;;6165210;23;20149;-86
2022/05/25 10:20:28;;;;;;;11.50;5.80;;;19.70;58.10;;;;;;6165395;23;20201;-88
2022/05/25 10:23:04;;;;;;;9.38;6.05;;;19.80;58.00;;;;;;6193934;23;20130;-87
2022/05/25 10:25:35;;;;;;;6.88;5.40;;;19.70;57.90;;;;;;6165652;23;20159;-87
2022/05/25 10:28:00;;;;;;;7.88;6.38;;;19.70;57.90;;;;;;6164621;23;20185;-87
2022/05/25 10:38:42;;;;;;;12.48;6.25;;;19.80;58.30;;;;;;6224314;23;20189;-87
2022/05/25 10:44:10;;;;;;;9.90;6.13;;;19.70;58.60;;;;;;6228923;23;20140;-85
2022/05/25 10:46:36;;;;;;;8.90;6.63;;;19.70;58.30;;;;;;6223521;23;20165;-85
2022/05/25 10:49:09;;;;;;;10.70;6.38;;;19.70;58.60;;;;;;6173575;23;20172;-86
2022/05/25 10:51:49;;;;;;;10.27;6.78;;;19.70;58.50;;;;;;6177635;23;20180;-87
2022/05/25 10:54:45;;;;;;;6.75;5.65;;;19.60;58.70;;;;;;6199614;23;20191;-87
2022/05/25 10:57:46;;;;;;;10.75;6.68;;;19.60;58.10;;;;;;6178555;23;20188;-86
2022/05/25 11:00:20;;;;;;;9.88;6.03;;;19.60;58.70;;;;;;6221395;23;20183;-86
2022/05/25 11:03:23;;;;;;;8.20;6.70;;;19.60;58.20;;;;;;6195485;23;20726;-87
2022/05/25 11:05:55;;;;;;;9.07;6.57;;;19.60;58.70;;;;;;6177577;23;20484;-86
2022/05/25 11:08:39;;;;;;;11.93;6.70;;;19.70;58.60;;;;;;6169941;23;20149;-86
2022/05/25 11:11:26;;;;;;;8.30;6.78;;;19.60;58.80;;;;;;6173359;23;20140;-86
2022/05/25 11:14:28;;;;;;;10.77;6.97;;;19.60;59.00;;;;;;6220549;23;20130;-86
2022/05/25 11:17:03;;;;;;;8.60;6.82;;;19.60;58.80;;;;;;6246767;23;20233;-86
2022/05/25 11:20:00;;;;;;;12.80;7.15;;;19.60;58.60;;;;;;6196405;23;20180;-86
2022/05/25 11:22:35;;;;;;;8.73;6.47;;;19.60;58.70;;;;;;6201487;23;20213;-86
2022/05/25 11:25:23;;;;;;;9.70;6.65;;;19.60;58.50;;;;;;6170044;23;20148;-86
2022/05/25 11:28:14;;;;;;;9.48;5.70;;;19.60;58.50;;;;;;6203710;23;20134;-87
2022/05/25 11:30:56;;;;;;;7.47;5.80;;;19.70;58.10;;;;;;6199500;23;20577;-87
2022/05/25 11:33:56;;;;;;;7.68;6.00;;;19.70;58.30;;;;;;6222028;23;20129;-86
2022/05/25 11:36:56;;;;;;;9.27;6.45;;;19.70;58.40;;;;;;6224728;23;20648;-86
2022/05/25 11:39:56;;;;;;;10.02;6.68;;;19.70;58.30;;;;;;6219613;23;20215;-86
2022/05/25 11:42:56;;;;;;;9.77;6.22;;;19.70;58.30;;;;;;6224175;23;20137;-86
2022/05/25 11:45:47;;;;;;;8.13;6.25;;;19.70;58.30;;;;;;6221910;23;20224;-86
2022/05/25 11:48:46;;;;;;;6.97;6.20;;;19.70;58.20;;;;;;6177162;23;20188;-86
2022/05/25 11:51:24;;;;;;;8.02;6.20;;;19.70;58.20;;;;;;6225120;23;20149;-85
2022/05/25 11:54:15;;;;;;;9.25;5.93;;;19.70;58.10;;;;;;6198600;23;20140;-85
2022/05/25 11:57:05;;;;;;;9.27;6.28;;;19.70;58.20;;;;;;6176984;23;20180;-86
2022/05/25 11:59:53;;;;;;;7.57;6.00;;;19.70;58.10;;;;;;6222724;23;20244;-85
2022/05/25 12:02:56;;;;;;;7.88;5.95;;;19.70;57.80;;;;;;6198445;23;20177;-86
2022/05/25 12:05:32;;;;;;;7.70;6.22;;;19.70;58.30;;;;;;6249669;23;20133;-85
2022/05/25 12:08:08;;;;;;;7.75;6.18;;;19.70;58.00;;;;;;6175562;23;20141;-85
2022/05/25 12:10:38;;;;;;;8.77;5.93;;;19.80;58.00;;;;;;6223346;23;20191;-86
2022/05/25 12:13:26;;;;;;;7.65;6.65;;;19.70;58.10;;;;;;6198271;23;20197;-86
2022/05/25 12:16:06;;;;;;;10.38;6.30;;;19.70;58.30;;;;;;6177711;23;20447;-86
2022/05/25 12:18:56;;;;;;;7.03;5.85;;;19.70;58.30;;;;;;6174811;23;20177;-86
2022/05/25 12:21:33;;;;;;;7.82;6.88;;;19.70;58.00;;;;;;6175055;23;20152;-85
2022/05/25 12:24:05;;;;;;;9.48;6.38;;;19.80;58.20;;;;;;6201210;23;20216;-86
2022/05/25 12:26:32;;;;;;;8.32;6.18;;;19.80;58.00;;;;;;6198829;23;20149;-85
2022/05/25 12:29:21;;;;;;;7.10;5.55;;;19.70;58.00;;;;;;6173970;23;20145;-85
2022/05/25 12:31:53;;;;;;;8.45;6.30;;;19.70;57.60;;;;;;6197910;23;20156;-86
2022/05/25 12:34:30;;;;;;;6.45;5.70;;;19.80;57.60;;;;;;6174527;23;20149;-85
2022/05/25 12:36:56;;;;;;;9.27;5.75;;;19.80;57.50;;;;;;6199449;23;20141;-85
2022/05/25 12:39:52;;;;;;;10.13;6.40;;;19.80;57.90;;;;;;6172945;23;20512;-85
2022/05/25 12:42:34;;;;;;;6.35;5.13;;;19.80;57.80;;;;;;6197284;23;20142;-86
2022/05/25 12:50:38;;;;;;;7.57;6.05;;;19.80;57.60;;;;;;6204502;23;20468;-85
2022/05/25 12:53:26;;;;;;;6.55;5.53;;;19.80;57.90;;;;;;6173282;23;20324;-85
2022/05/25 12:55:57;;;;;;;9.35;6.25;;;19.80;57.70;;;;;;6221634;23;20211;-85
2022/05/25 12:58:53;;;;;;;6.72;5.80;;;19.80;57.80;;;;;;6173173;23;20189;-85
2022/05/25 13:01:39;;;;;;;7.97;5.93;;;19.80;57.80;;;;;;6197580;23;20145;-85
2022/05/25 13:04:13;;;;;;;8.27;6.63;;;19.70;57.90;;;;;;6198045;23;20244;-85
2022/05/25 13:07:08;;;;;;;6.63;6.03;;;19.80;57.70;;;;;;6174723;23;20576;-85
2022/05/25 13:09:40;;;;;;;6.20;5.60;;;19.70;58.00;;;;;;6178091;23;20149;-84
2022/05/25 13:12:37;;;;;;;8.38;6.00;;;19.80;57.60;;;;;;6198217;23;20126;-85
2022/05/25 13:15:29;;;;;;;9.27;6.22;;;19.70;57.80;;;;;;6248693;23;20145;-85
2022/05/25 13:17:55;;;;;;;7.78;6.32;;;19.70;58.00;;;;;;6223533;23;20130;-85
2022/05/25 13:21:00;;;;;;;7.07;6.05;;;19.80;57.60;;;;;;6198286;23;20258;-85
2022/05/25 13:24:06;;;;;;;7.72;6.05;;;19.80;58.00;;;;;;6183581;23;20204;-86
2022/05/25 13:26:46;;;;;;;7.60;6.07;;;19.70;58.00;;;;;;6247525;23;20149;-85
2022/05/25 13:29:22;;;;;;;8.20;5.97;;;19.70;58.10;;;;;;6223536;23;20222;-85
2022/05/25 13:32:08;;;;;;;8.82;5.90;;;19.70;58.00;;;;;;6172113;23;20150;-85
2022/05/25 13:34:33;;;;;;;7.47;6.07;;;19.70;58.00;;;;;;6175228;23;20164;-85
2022/05/25 13:37:01;;;;;;;8.07;6.20;;;19.70;58.10;;;;;;6196336;23;20129;-85
2022/05/25 13:39:27;;;;;;;6.50;5.57;;;19.60;58.10;;;;;;6172260;23;20181;-85
2022/05/25 13:41:56;;;;;;;7.75;5.88;;;19.80;57.80;;;;;;6196219;23;20134;-85
2022/05/25 13:44:27;;;;;;;8.15;5.90;;;19.70;57.70;;;;;;6172641;23;20138;-85
2022/05/25 13:46:54;;;;;;;6.00;5.30;;;19.70;57.90;;;;;;6172349;23;20628;-86
2022/05/25 13:49:38;;;;;;;7.30;5.70;;;19.80;57.60;;;;;;6197882;23;20137;-86